Alzada, MT

10:44 AM MDT on October 21, 2014 (GMT -0600)
RAWS INDIAN BUTTE SD US | Change Station
CLOSE
Current Station
Personal Weather Station
Location: Alzada, MT
Elevation: 3379 ft
Nearby Weather Stations

Elev 3379 ft 45.14 °N, 103.91 °W | Updated 48 minutes ago

Clear
Clear
64 °F
Feels Like 64 °F
N
12
Wind Variable Wind from South
Gusts 16.0 mph

Today
High -- | Low -- °F
--% Chance of Precip.
Yesterday
High -- | Low -- °F
Precip. -- in
7:20 AM 6:01 PM
Waning Crescent, 5% visible
Pressure 29.82 in
Visibility 10.0 miles
Clouds Clear
Dew Point 44 °F
Humidity 48%
Rainfall 0.00 in
Snow Depth Not available.
UV 3 out of 12
Pollen 2.90 out of 12
Air Quality Not available.
Flu Activity No Activity
METAR KW43 211635Z AUTO 21017G25KT 10SM CLR 21/03 A2982 RMK AO2

More Conditions Fewer Conditions

Pressure 29.82 in
Visibility 10.0 miles
Clouds Clear
Dew Point 44 °F
Humidity 48%
Rainfall 0.00 in
Snow Depth Not available.
UV 3 out of 12
Pollen 2.90 out of 12
Air Quality Not available.
Flu Activity No Activity
METAR KW43 211635Z AUTO 21017G25KT 10SM CLR 21/03 A2982 RMK AO2

More Conditions Fewer Conditions

10-Day Weather Forecast

Almanac

Astronomy

Oct. 21, 2014 Rise Set
Actual Time 7:20 AM MDT 6:01 PM MDT
Civil Twilight 6:50 AM MDT 6:31 PM MDT
Nautical Twilight 6:16 AM MDT 7:05 PM MDT
Astronomical Twilight 5:42 AM MDT 7:39 PM MDT
Moon 5:01 AM MDT 5:01 PM MDT
Length of Visible Light 11h 40m
Length of Day
10h 40m
Tomorrow will be 2m 58s shorter.
Waning Crescent, 5% of the Moon is Illuminated
Today
Waning Crescent
Oct 23
New
Oct 30
First Quarter
Nov 6
Full
Nov 14
Last Quarter

Today's Extremes

State Highs State Lows

Community

WunderPhotos

Upload Photos

1,763,712 photos uploaded!

Nearby

Snow Depth

Station Depth Elevation
Burnt Mountain 0 in 5880 ft
Crystal Lake 1 in 6050 ft
White Mill 0 in 8700 ft
Fisher Creek 2 in 9100 ft
Northeast Entrance 0 in 7350 ft

Earthquake Activity

City Distance Mag. Time & Date
No recent earthquake activity has been reported nearby.
Minimum magnitude displayed is 2.5.

Coastal Water Temperatures

Place Temperature
No Stations Reporting

Nearby Weather Stations